Time;durP1;ratioP1;P1;durP2;ratioP2;P2;SDS_P1;SDS_P2;PMS_P1;PMS_P2;Temp;Humidity;BMP_temperature;BMP_pressure;BME280_temperature;BME280_humidity;BME280_pressure;Samples;Min_cycle;Max_cycle;Signal;HPM_P1;HPM_P2
2021/07/04 00:02:02;;;;;;;9.57;8.57;;;20.10;99.90;;;;;;5125362;28;20035;-70
2021/07/04 00:04:28;;;;;;;8.85;8.02;;;20.10;99.90;;;;;;5125598;28;20044;-70
2021/07/04 00:06:54;;;;;;;11.65;9.32;;;20.00;99.90;;;;;;5124144;28;20517;-71
2021/07/04 00:09:20;;;;;;;9.63;8.73;;;20.00;99.90;;;;;;5124153;28;20056;-71
2021/07/04 00:11:46;;;;;;;10.52;9.00;;;20.00;99.90;;;;;;5124962;28;20043;-70
2021/07/04 00:14:13;;;;;;;9.70;8.70;;;20.00;99.90;;;;;;5124826;28;20039;-70
2021/07/04 00:16:39;;;;;;;8.13;7.32;;;20.00;99.90;;;;;;5123719;28;20040;-70
2021/07/04 00:19:05;;;;;;;9.50;8.50;;;19.90;99.90;;;;;;5114216;28;20061;-71
2021/07/04 00:21:32;;;;;;;9.85;8.82;;;19.90;99.90;;;;;;5110772;28;20093;-71
2021/07/04 00:23:58;;;;;;;9.20;8.32;;;19.90;99.90;;;;;;5124266;28;20077;-71
2021/07/04 00:26:24;;;;;;;10.40;9.50;;;19.90;99.90;;;;;;5125889;28;20056;-71
2021/07/04 00:28:50;;;;;;;9.13;8.23;;;19.80;99.90;;;;;;5123684;28;20039;-70
2021/07/04 00:31:16;;;;;;;10.48;8.70;;;19.80;99.90;;;;;;5125451;28;20078;-71
2021/07/04 00:33:42;;;;;;;9.40;8.38;;;19.80;99.90;;;;;;5105283;28;20040;-70
2021/07/04 00:36:08;;;;;;;9.45;8.45;;;19.80;99.90;;;;;;5118254;28;20126;-71
2021/07/04 00:38:35;;;;;;;9.82;8.60;;;19.80;99.90;;;;;;5124828;28;20040;-71
2021/07/04 00:41:02;;;;;;;10.25;9.18;;;19.80;99.90;;;;;;5124976;28;20047;-71
2021/07/04 00:43:28;;;;;;;10.10;9.00;;;19.80;99.90;;;;;;5124953;28;20044;-70
2021/07/04 00:45:54;;;;;;;10.88;9.77;;;19.70;99.90;;;;;;5125088;28;20046;-71
2021/07/04 00:48:20;;;;;;;10.90;9.80;;;19.70;99.90;;;;;;5114737;28;20063;-71
2021/07/04 00:50:47;;;;;;;12.40;9.05;;;19.70;99.90;;;;;;5124991;28;20052;-71
2021/07/04 00:53:14;;;;;;;10.35;9.20;;;19.70;99.90;;;;;;5124672;28;20047;-71
2021/07/04 00:55:40;;;;;;;12.85;9.23;;;19.70;99.90;;;;;;5126085;28;20411;-71
2021/07/04 00:58:06;;;;;;;9.95;8.25;;;19.70;99.90;;;;;;5125389;28;20040;-71
2021/07/04 01:00:35;;;;;;;11.15;9.15;;;19.60;99.90;;;;;;5124817;28;20044;-70
2021/07/04 01:03:01;;;;;;;10.45;9.43;;;19.60;99.90;;;;;;5123317;28;20096;-71
2021/07/04 01:05:32;;;;;;;12.38;10.02;;;19.60;99.90;;;;;;5125095;28;20122;-71
2021/07/04 01:08:00;;;;;;;11.77;10.50;;;19.60;99.90;;;;;;5124285;28;20495;-71
2021/07/04 01:10:28;;;;;;;10.52;9.52;;;19.50;99.90;;;;;;5125043;28;20095;-71
2021/07/04 01:12:56;;;;;;;11.07;10.00;;;19.50;99.90;;;;;;5124527;28;20043;-71
2021/07/04 01:15:25;;;;;;;10.85;9.80;;;19.50;99.90;;;;;;5124351;28;20099;-70
2021/07/04 01:17:53;;;;;;;10.32;9.32;;;19.50;99.90;;;;;;5124533;28;20046;-70
2021/07/04 01:20:21;;;;;;;10.43;9.35;;;19.50;99.90;;;;;;5120114;28;20044;-70
2021/07/04 01:23:16;;;;;;;10.95;9.85;;;19.60;99.90;;;;;;5122052;28;20059;-71
2021/07/04 01:25:50;;;;;;;11.90;10.70;;;19.50;99.90;;;;;;5124399;28;20047;-71
2021/07/04 01:28:19;;;;;;;11.90;10.07;;;19.50;99.90;;;;;;5117445;28;20039;-71
2021/07/04 01:30:51;;;;;;;10.75;9.65;;;19.50;99.90;;;;;;5119732;28;20051;-71
2021/07/04 01:33:17;;;;;;;10.63;9.15;;;19.50;99.90;;;;;;5124487;28;20078;-71
2021/07/04 01:35:43;;;;;;;10.93;9.43;;;19.40;99.90;;;;;;5115409;28;20048;-70
2021/07/04 01:38:09;;;;;;;10.73;9.70;;;19.40;99.90;;;;;;5128104;28;20505;-70
2021/07/04 01:40:34;;;;;;;11.13;10.00;;;19.40;99.90;;;;;;5127926;28;20059;-70
2021/07/04 01:43:01;;;;;;;10.43;9.43;;;19.40;99.90;;;;;;5127919;28;20519;-70
2021/07/04 01:45:27;;;;;;;11.18;10.05;;;19.40;99.90;;;;;;5127766;28;20126;-70
2021/07/04 01:47:54;;;;;;;11.80;10.70;;;19.40;99.90;;;;;;5125085;28;20055;-70
2021/07/04 01:50:27;;;;;;;10.30;9.27;;;19.30;99.90;;;;;;5128875;28;20043;-70
2021/07/04 01:52:53;;;;;;;11.98;10.75;;;19.30;99.90;;;;;;5128786;28;20044;-70
2021/07/04 01:55:19;;;;;;;10.77;9.77;;;19.30;99.90;;;;;;5128735;28;20071;-70
2021/07/04 01:57:46;;;;;;;11.48;10.25;;;19.30;99.90;;;;;;5129054;28;20433;-70
2021/07/04 02:00:18;;;;;;;12.07;10.77;;;19.30;99.90;;;;;;5127459;28;20055;-70
2021/07/04 02:02:46;;;;;;;12.35;11.07;;;19.40;99.90;;;;;;5127725;28;20062;-70
2021/07/04 02:05:12;;;;;;;11.43;10.23;;;19.40;99.90;;;;;;5128058;28;20073;-70
2021/07/04 02:07:38;;;;;;;12.40;10.07;;;19.30;99.90;;;;;;5127616;28;20122;-70
2021/07/04 02:10:06;;;;;;;11.93;10.73;;;19.30;99.90;;;;;;5127609;28;20059;-71
2021/07/04 02:12:33;;;;;;;10.93;9.70;;;19.30;99.90;;;;;;5128212;28;20054;-70
2021/07/04 02:14:59;;;;;;;12.40;11.10;;;19.30;99.90;;;;;;5126535;28;20063;-70
2021/07/04 02:17:25;;;;;;;12.43;11.13;;;19.30;99.90;;;;;;5127663;28;20054;-70
2021/07/04 02:19:51;;;;;;;13.55;12.02;;;19.30;99.90;;;;;;5127314;28;20039;-70
2021/07/04 02:22:17;;;;;;;12.20;10.93;;;19.30;99.90;;;;;;5113463;28;20224;-70
2021/07/04 02:24:43;;;;;;;12.00;10.70;;;19.30;99.90;;;;;;5127165;27;20157;-70
2021/07/04 02:27:11;;;;;;;14.02;11.75;;;19.30;99.90;;;;;;5125284;28;20047;-70
2021/07/04 02:29:38;;;;;;;13.35;11.05;;;19.30;99.90;;;;;;5106873;28;20056;-70
2021/07/04 02:32:05;;;;;;;12.77;10.93;;;19.30;99.90;;;;;;5107891;28;20050;-70
2021/07/04 02:34:30;;;;;;;12.27;11.07;;;19.20;99.90;;;;;;5121054;28;20071;-70
2021/07/04 02:36:56;;;;;;;14.55;12.93;;;19.30;99.90;;;;;;5127079;28;20039;-70
2021/07/04 02:39:22;;;;;;;13.23;11.88;;;19.20;99.90;;;;;;5126098;28;20090;-70
2021/07/04 02:41:49;;;;;;;14.38;12.77;;;19.20;99.90;;;;;;5126881;28;20129;-70
2021/07/04 02:44:15;;;;;;;13.75;12.35;;;19.20;99.90;;;;;;5142960;27;20498;-70
2021/07/04 02:46:41;;;;;;;13.93;12.18;;;19.20;99.90;;;;;;5126205;28;20039;-71
2021/07/04 02:49:07;;;;;;;13.82;12.50;;;19.10;99.90;;;;;;5126759;28;20061;-70
2021/07/04 02:51:34;;;;;;;15.25;11.88;;;19.20;99.90;;;;;;5127060;28;20043;-70
2021/07/04 02:54:00;;;;;;;13.75;12.45;;;19.20;99.90;;;;;;5126441;28;20047;-71
2021/07/04 02:56:25;;;;;;;15.13;13.40;;;19.20;99.90;;;;;;5126680;28;20047;-71
2021/07/04 02:58:51;;;;;;;13.88;12.43;;;19.20;99.90;;;;;;5126617;28;20104;-70
2021/07/04 03:01:18;;;;;;;14.38;12.45;;;19.10;99.90;;;;;;5127585;28;20485;-71
2021/07/04 03:03:44;;;;;;;14.38;12.82;;;19.10;99.90;;;;;;5126133;28;20061;-71
2021/07/04 03:06:10;;;;;;;14.85;12.85;;;19.10;99.90;;;;;;5126050;28;20040;-70
2021/07/04 03:08:35;;;;;;;14.00;12.23;;;19.10;99.90;;;;;;5127445;28;20040;-70
2021/07/04 03:11:04;;;;;;;15.27;13.68;;;19.10;99.90;;;;;;5126584;28;20040;-70
2021/07/04 03:13:30;;;;;;;16.15;14.45;;;19.10;99.90;;;;;;5125496;28;20065;-70
2021/07/04 03:15:55;;;;;;;15.27;13.68;;;19.10;99.90;;;;;;5126383;28;20047;-70
2021/07/04 03:18:22;;;;;;;12.60;11.30;;;19.10;99.90;;;;;;5126374;28;20044;-70
2021/07/04 03:20:48;;;;;;;13.75;12.38;;;19.10;99.90;;;;;;5125525;27;20514;-71
2021/07/04 03:23:13;;;;;;;15.93;14.23;;;19.10;99.90;;;;;;5121495;28;20040;-70
2021/07/04 03:25:39;;;;;;;14.15;12.82;;;19.10;99.90;;;;;;5114141;28;20039;-70
2021/07/04 03:28:05;;;;;;;16.60;14.93;;;19.10;99.90;;;;;;5118133;28;20518;-70
2021/07/04 03:30:32;;;;;;;15.93;14.32;;;19.00;99.90;;;;;;5125829;28;20128;-70
2021/07/04 03:32:58;;;;;;;15.40;13.07;;;19.10;99.90;;;;;;5125575;28;20051;-70
2021/07/04 03:35:23;;;;;;;15.20;13.70;;;19.00;99.90;;;;;;5125941;28;20043;-70
2021/07/04 03:37:49;;;;;;;16.77;15.07;;;19.10;99.90;;;;;;5121452;28;20064;-70
2021/07/04 03:40:18;;;;;;;15.90;14.23;;;19.00;99.90;;;;;;5125989;28;20476;-70
2021/07/04 03:42:46;;;;;;;15.25;13.65;;;19.00;99.90;;;;;;5125618;28;20035;-70
2021/07/04 03:45:12;;;;;;;15.63;14.02;;;19.10;99.90;;;;;;5125766;28;20043;-70
2021/07/04 03:47:39;;;;;;;16.10;13.80;;;19.10;99.90;;;;;;5115877;28;20036;-70
2021/07/04 03:50:06;;;;;;;14.98;13.35;;;19.00;99.90;;;;;;5112870;28;20048;-70
2021/07/04 03:52:32;;;;;;;15.40;13.82;;;18.90;99.90;;;;;;5125787;28;20077;-70
2021/07/04 03:54:58;;;;;;;13.05;11.75;;;18.90;99.90;;;;;;5125191;28;20100;-70
2021/07/04 03:57:24;;;;;;;13.73;12.32;;;19.00;99.90;;;;;;5125176;28;20043;-70
2021/07/04 03:59:55;;;;;;;14.95;12.25;;;19.00;99.90;;;;;;5125206;28;20040;-70
2021/07/04 04:02:22;;;;;;;14.63;12.32;;;19.10;99.90;;;;;;5125599;28;20053;-70
2021/07/04 04:04:49;;;;;;;14.43;12.23;;;19.10;99.90;;;;;;5126261;27;20040;-70
2021/07/04 04:07:35;;;;;;;12.30;10.93;;;19.10;99.90;;;;;;5125358;28;20452;-70
2021/07/04 04:10:04;;;;;;;13.45;12.15;;;19.10;99.90;;;;;;5125582;28;20040;-70
2021/07/04 04:12:30;;;;;;;13.68;11.50;;;19.10;99.90;;;;;;5125910;28;20035;-70
2021/07/04 04:14:56;;;;;;;12.70;11.50;;;19.10;99.90;;;;;;5125150;28;20077;-70
2021/07/04 04:17:22;;;;;;;12.82;11.27;;;19.20;99.90;;;;;;5126024;28;20446;-70
2021/07/04 04:19:48;;;;;;;12.63;11.40;;;19.20;99.90;;;;;;5125154;28;20067;-70
2021/07/04 04:22:13;;;;;;;13.55;12.15;;;19.20;99.90;;;;;;5114954;28;20050;-70
2021/07/04 04:24:39;;;;;;;13.90;12.00;;;19.10;99.90;;;;;;5124777;28;20047;-70
2021/07/04 04:27:06;;;;;;;13.13;11.55;;;19.10;99.90;;;;;;5116389;28;20111;-70
2021/07/04 04:29:32;;;;;;;12.95;11.65;;;19.10;99.90;;;;;;5124038;28;20119;-70
2021/07/04 04:31:58;;;;;;;14.82;13.30;;;19.10;99.90;;;;;;5125688;28;20051;-70
2021/07/04 04:34:24;;;;;;;13.02;11.45;;;19.10;99.90;;;;;;5124471;28;20044;-70
2021/07/04 04:36:49;;;;;;;12.18;10.93;;;19.10;99.90;;;;;;5118613;28;20042;-70
2021/07/04 04:39:15;;;;;;;13.13;11.65;;;19.10;99.90;;;;;;5125706;28;20063;-70
2021/07/04 04:41:41;;;;;;;13.80;12.38;;;19.10;99.90;;;;;;5126109;28;20047;-70
2021/07/04 04:44:07;;;;;;;11.82;10.50;;;19.10;99.90;;;;;;5111301;28;20047;-71
2021/07/04 04:46:34;;;;;;;12.07;10.80;;;19.10;99.90;;;;;;5124491;28;20066;-70
2021/07/04 04:48:59;;;;;;;12.02;10.77;;;19.10;99.90;;;;;;5124306;28;20109;-70
2021/07/04 04:51:26;;;;;;;12.65;11.43;;;19.20;99.90;;;;;;5125423;28;20055;-70
2021/07/04 04:53:52;;;;;;;12.73;11.43;;;19.20;99.90;;;;;;5124034;28;20055;-70
2021/07/04 04:56:18;;;;;;;11.73;10.52;;;19.20;99.90;;;;;;5124390;28;20043;-70
2021/07/04 04:58:44;;;;;;;11.57;10.38;;;19.20;99.90;;;;;;5114600;28;20578;-68
2021/07/04 05:01:11;;;;;;;12.35;10.55;;;19.20;99.90;;;;;;5122444;28;20055;-70
2021/07/04 05:03:37;;;;;;;14.73;11.50;;;19.20;99.90;;;;;;5117745;28;20108;-70
2021/07/04 05:06:02;;;;;;;12.82;11.43;;;19.20;99.90;;;;;;5103915;28;20048;-70
2021/07/04 05:08:30;;;;;;;12.43;11.13;;;19.20;99.90;;;;;;5124564;28;20044;-70
2021/07/04 05:10:56;;;;;;;13.23;11.35;;;19.20;99.90;;;;;;5127536;28;20492;-70
2021/07/04 05:13:23;;;;;;;12.57;11.27;;;19.20;99.90;;;;;;5120575;28;20560;-70
2021/07/04 05:15:48;;;;;;;12.63;11.38;;;19.20;99.90;;;;;;5125846;28;20044;-70
2021/07/04 05:18:14;;;;;;;14.55;12.05;;;19.20;99.90;;;;;;5129025;28;20050;-70
2021/07/04 05:20:40;;;;;;;13.48;11.52;;;19.10;99.90;;;;;;5116297;28;20050;-70
2021/07/04 05:23:06;;;;;;;13.52;11.40;;;19.10;99.90;;;;;;5129513;28;20051;-70
2021/07/04 05:25:32;;;;;;;11.93;10.73;;;19.10;99.90;;;;;;5120804;28;20496;-70
2021/07/04 05:27:58;;;;;;;14.27;12.27;;;19.20;99.90;;;;;;5117979;28;20047;-70
2021/07/04 05:30:23;;;;;;;12.35;10.70;;;19.20;99.90;;;;;;5114923;28;20051;-70
2021/07/04 05:32:49;;;;;;;13.15;11.75;;;19.20;99.90;;;;;;5115416;28;20058;-70
2021/07/04 05:35:15;;;;;;;12.38;11.15;;;19.20;99.90;;;;;;5126521;28;20487;-70
2021/07/04 05:37:41;;;;;;;11.18;10.07;;;19.20;99.90;;;;;;5114516;28;20058;-70
2021/07/04 05:40:14;;;;;;;12.73;10.55;;;19.30;99.90;;;;;;5112279;28;20051;-70
2021/07/04 05:42:43;;;;;;;11.63;10.43;;;19.30;99.90;;;;;;5115735;28;20036;-71
2021/07/04 05:45:19;;;;;;;12.45;11.15;;;19.40;99.90;;;;;;5121999;28;20047;-70
2021/07/04 05:47:45;;;;;;;10.70;9.70;;;19.40;99.90;;;;;;5125483;28;20066;-70
2021/07/04 05:50:11;;;;;;;11.82;10.63;;;19.50;99.90;;;;;;5119148;28;20040;-70
2021/07/04 05:52:38;;;;;;;12.60;10.80;;;19.50;99.90;;;;;;5139795;27;20043;-70
2021/07/04 05:55:04;;;;;;;13.00;10.68;;;19.60;99.90;;;;;;5121356;28;20063;-70
2021/07/04 05:57:30;;;;;;;11.25;10.10;;;19.60;99.90;;;;;;5116256;28;20044;-70
2021/07/04 05:59:56;;;;;;;11.55;10.02;;;19.70;99.90;;;;;;5127739;27;20079;-70
2021/07/04 06:02:22;;;;;;;10.85;9.85;;;19.80;99.90;;;;;;5121467;28;20052;-70
2021/07/04 06:04:47;;;;;;;12.00;10.30;;;19.90;99.90;;;;;;5116556;28;20074;-70
2021/07/04 06:07:13;;;;;;;9.55;8.55;;;19.90;99.90;;;;;;5129533;27;20051;-70
2021/07/04 06:09:39;;;;;;;9.43;8.45;;;20.00;99.90;;;;;;5114626;28;20040;-70
2021/07/04 06:12:05;;;;;;;11.52;10.25;;;20.10;99.90;;;;;;5113456;28;20075;-70
2021/07/04 06:14:31;;;;;;;11.80;10.60;;;20.10;99.90;;;;;;5123599;28;20047;-70
2021/07/04 06:16:57;;;;;;;9.48;8.57;;;20.20;99.90;;;;;;5130668;27;20054;-70
2021/07/04 06:19:22;;;;;;;10.77;9.68;;;20.10;99.90;;;;;;5124127;28;20039;-70
2021/07/04 06:21:48;;;;;;;10.40;9.40;;;20.00;99.90;;;;;;5127560;28;20050;-70
2021/07/04 06:24:14;;;;;;;10.57;9.48;;;19.90;99.90;;;;;;5128329;28;20051;-70
2021/07/04 06:26:40;;;;;;;11.40;10.10;;;19.90;99.90;;;;;;5118211;28;20075;-70
2021/07/04 06:29:06;;;;;;;10.77;9.68;;;19.80;99.90;;;;;;5115567;28;20044;-70
2021/07/04 06:31:31;;;;;;;10.55;9.45;;;19.80;99.90;;;;;;5100561;28;20055;-71
2021/07/04 06:33:58;;;;;;;11.75;9.48;;;19.80;99.90;;;;;;5124251;28;20044;-70
2021/07/04 06:36:27;;;;;;;11.55;10.38;;;19.80;99.90;;;;;;5125015;28;20426;-71
2021/07/04 06:38:55;;;;;;;12.02;10.27;;;19.80;99.90;;;;;;5124790;28;20079;-71
2021/07/04 06:41:21;;;;;;;12.88;10.35;;;19.80;99.90;;;;;;5096435;27;20055;-70
2021/07/04 06:43:47;;;;;;;10.85;9.80;;;19.70;99.90;;;;;;5112123;27;20065;-70
2021/07/04 06:46:13;;;;;;;12.23;11.02;;;19.70;99.90;;;;;;5134495;27;20067;-69
2021/07/04 06:48:39;;;;;;;10.75;9.65;;;19.70;99.90;;;;;;5121108;27;20055;-69
2021/07/04 06:51:06;;;;;;;11.02;9.90;;;19.60;99.90;;;;;;5114246;27;20035;-71
2021/07/04 06:53:33;;;;;;;11.52;10.43;;;19.60;99.90;;;;;;5116087;27;20046;-73
2021/07/04 06:55:59;;;;;;;11.40;10.30;;;19.60;99.90;;;;;;5115626;27;20090;-73
2021/07/04 06:58:25;;;;;;;10.70;9.70;;;19.60;99.90;;;;;;5120128;27;20580;-74
2021/07/04 07:00:51;;;;;;;10.85;9.63;;;19.60;99.90;;;;;;5113487;27;20051;-72
2021/07/04 07:03:17;;;;;;;11.05;9.93;;;19.50;99.90;;;;;;5132049;27;20246;-72
2021/07/04 07:05:44;;;;;;;10.30;9.20;;;19.50;99.90;;;;;;5111390;27;20043;-72
2021/07/04 07:08:10;;;;;;;10.98;9.88;;;19.60;99.90;;;;;;5118576;28;20073;-75
2021/07/04 07:10:36;;;;;;;9.02;8.13;;;19.60;99.90;;;;;;5102503;28;20118;-74
2021/07/04 07:13:03;;;;;;;9.40;8.50;;;19.60;99.90;;;;;;5127938;27;20107;-75
2021/07/04 07:15:29;;;;;;;10.48;9.48;;;19.50;99.90;;;;;;5107078;28;20047;-73
2021/07/04 07:17:55;;;;;;;12.30;10.93;;;19.50;99.90;;;;;;5101084;28;20036;-76
2021/07/04 07:20:21;;;;;;;9.25;8.35;;;19.60;99.90;;;;;;5116787;28;20530;-75
2021/07/04 07:22:47;;;;;;;10.55;9.15;;;19.60;99.90;;;;;;5118145;27;20071;-75
2021/07/04 07:25:14;;;;;;;9.90;8.90;;;19.70;99.90;;;;;;5117568;28;20031;-80
2021/07/04 07:27:40;;;;;;;9.23;8.32;;;19.80;99.90;;;;;;5118426;27;20043;-77
2021/07/04 07:30:08;;;;;;;10.65;9.27;;;19.90;99.90;;;;;;5117206;28;20468;-76
2021/07/04 07:32:35;;;;;;;9.45;8.55;;;19.90;99.90;;;;;;5092376;28;20050;-77
2021/07/04 07:35:03;;;;;;;10.65;9.55;;;19.90;99.90;;;;;;5117603;28;20054;-77
2021/07/04 07:37:29;;;;;;;11.25;9.18;;;20.00;99.90;;;;;;5110793;27;20043;-75
2021/07/04 07:39:55;;;;;;;9.13;8.23;;;20.10;99.90;;;;;;5121460;27;20495;-76
2021/07/04 07:42:21;;;;;;;8.57;7.75;;;20.10;99.90;;;;;;5118956;27;20062;-75
2021/07/04 07:44:47;;;;;;;8.93;8.02;;;20.20;99.90;;;;;;5129875;27;20070;-75
2021/07/04 07:47:13;;;;;;;8.90;7.80;;;20.20;99.90;;;;;;5120717;27;20055;-75
2021/07/04 07:49:39;;;;;;;9.05;7.95;;;20.30;99.90;;;;;;5123455;27;20042;-77
2021/07/04 07:52:06;;;;;;;8.82;7.97;;;20.40;99.90;;;;;;5122461;27;20047;-76
2021/07/04 07:54:32;;;;;;;8.75;7.85;;;20.40;99.90;;;;;;5119626;28;20039;-75
2021/07/04 07:57:01;;;;;;;9.05;8.07;;;20.40;99.90;;;;;;5118478;27;20127;-76
2021/07/04 07:59:29;;;;;;;9.18;8.27;;;20.50;99.90;;;;;;5119834;28;20048;-78
2021/07/04 08:01:55;;;;;;;9.32;8.40;;;20.60;99.90;;;;;;5117563;27;20055;-75
2021/07/04 08:04:20;;;;;;;8.75;7.80;;;20.70;99.90;;;;;;5131359;27;20042;-77
2021/07/04 08:06:46;;;;;;;8.98;8.07;;;20.80;99.90;;;;;;5117928;27;20627;-72
2021/07/04 08:09:12;;;;;;;9.45;8.15;;;20.90;99.90;;;;;;5135855;27;20047;-75
2021/07/04 08:11:38;;;;;;;9.93;8.05;;;21.00;99.90;;;;;;5118363;27;20043;-75
2021/07/04 08:14:04;;;;;;;8.93;7.75;;;21.10;99.90;;;;;;5127994;27;20040;-75
2021/07/04 08:16:30;;;;;;;9.23;8.18;;;21.20;99.90;;;;;;5116899;27;20093;-75
2021/07/04 08:18:56;;;;;;;8.43;7.63;;;21.20;99.90;;;;;;5126998;27;20051;-75
2021/07/04 08:21:22;;;;;;;8.65;7.80;;;21.20;99.90;;;;;;5111654;27;20051;-75
2021/07/04 08:23:48;;;;;;;7.43;6.72;;;21.30;99.90;;;;;;5123958;27;20054;-74
2021/07/04 08:26:14;;;;;;;8.88;7.18;;;21.30;99.90;;;;;;5107777;28;20043;-75
2021/07/04 08:28:40;;;;;;;7.95;7.15;;;21.30;99.90;;;;;;5124476;27;20045;-74
2021/07/04 08:31:06;;;;;;;7.78;7.03;;;21.30;99.90;;;;;;5094297;28;20449;-74
2021/07/04 08:33:32;;;;;;;8.43;7.63;;;21.30;99.90;;;;;;5119824;28;20563;-74
2021/07/04 08:35:58;;;;;;;8.48;7.40;;;21.40;99.90;;;;;;5111359;28;20071;-66
2021/07/04 08:38:23;;;;;;;8.10;7.30;;;21.40;99.90;;;;;;5134182;28;20053;-67
2021/07/04 08:40:50;;;;;;;9.13;8.10;;;21.30;99.90;;;;;;5108375;28;20047;-68
2021/07/04 08:43:34;;;;;;;9.88;8.15;;;21.30;99.90;;;;;;5116031;28;20050;-68
2021/07/04 08:46:01;;;;;;;8.85;7.95;;;21.30;99.90;;;;;;5105349;28;20051;-68
2021/07/04 08:48:27;;;;;;;9.13;8.23;;;21.20;99.90;;;;;;5125275;27;20076;-68
2021/07/04 08:50:53;;;;;;;9.35;8.30;;;21.10;99.90;;;;;;5111451;27;20040;-68
2021/07/04 08:53:20;;;;;;;10.10;9.10;;;21.10;99.90;;;;;;5139705;27;20040;-72
2021/07/04 08:55:47;;;;;;;10.15;8.30;;;21.10;99.90;;;;;;5124114;28;20095;-69
2021/07/04 08:58:18;;;;;;;8.73;7.82;;;21.10;99.90;;;;;;5108167;28;20115;-69
2021/07/04 09:00:44;;;;;;;9.05;8.15;;;21.00;99.90;;;;;;5118218;28;20047;-69
2021/07/04 09:03:26;;;;;;;9.50;8.50;;;21.00;99.90;;;;;;5121224;27;20055;-69
2021/07/04 09:05:52;;;;;;;8.05;7.25;;;21.10;99.90;;;;;;5104121;28;20043;-69
2021/07/04 09:08:21;;;;;;;8.30;7.50;;;21.20;99.90;;;;;;5136209;27;20040;-69
2021/07/04 09:11:10;;;;;;;9.10;8.20;;;21.30;99.90;;;;;;5111136;28;20062;-69
2021/07/04 09:13:36;;;;;;;8.38;7.57;;;21.30;99.90;;;;;;5109095;28;20048;-69
2021/07/04 09:16:14;;;;;;;8.25;7.45;;;21.40;99.90;;;;;;5106077;27;20504;-69
2021/07/04 09:18:40;;;;;;;7.72;6.93;;;21.50;99.90;;;;;;5135244;27;20099;-69
2021/07/04 09:21:21;;;;;;;8.10;7.30;;;21.60;99.90;;;;;;5108956;27;20122;-69
2021/07/04 09:23:46;;;;;;;7.72;6.93;;;21.70;99.90;;;;;;5136613;27;20054;-69
2021/07/04 09:26:41;;;;;;;7.88;7.13;;;21.80;99.90;;;;;;5105685;27;20051;-68
2021/07/04 09:29:08;;;;;;;7.47;6.78;;;21.90;99.90;;;;;;5111876;28;20066;-70
2021/07/04 09:31:34;;;;;;;6.93;6.22;;;22.00;99.90;;;;;;5094312;27;20047;-69
2021/07/04 09:34:11;;;;;;;7.53;6.65;;;22.00;99.90;;;;;;5115684;28;20036;-69
2021/07/04 09:36:41;;;;;;;8.15;7.35;;;22.10;99.90;;;;;;5116784;27;20047;-69
2021/07/04 09:39:21;;;;;;;7.13;6.32;;;22.10;99.90;;;;;;5123963;27;20042;-69
2021/07/04 09:42:03;;;;;;;7.25;6.45;;;22.20;99.90;;;;;;5104309;28;20059;-68
2021/07/04 09:44:29;;;;;;;7.53;6.82;;;22.30;99.90;;;;;;5114792;28;20040;-68
2021/07/04 09:47:20;;;;;;;7.38;6.68;;;22.20;99.90;;;;;;5098456;27;20138;-68
2021/07/04 09:49:47;;;;;;;6.55;5.75;;;22.30;99.90;;;;;;5121750;28;20466;-69
2021/07/04 09:52:19;;;;;;;7.47;6.78;;;22.20;99.90;;;;;;5122350;27;20123;-69
2021/07/04 09:54:57;;;;;;;7.05;6.28;;;22.20;99.90;;;;;;5127812;27;20067;-69
2021/07/04 09:57:24;;;;;;;7.40;6.65;;;22.20;99.90;;;;;;5112076;27;20118;-69
2021/07/04 10:00:14;;;;;;;11.18;7.28;;;22.20;99.90;;;;;;5124714;27;20035;-69
2021/07/04 10:02:40;;;;;;;7.30;6.57;;;22.00;99.90;;;;;;5114363;27;20051;-68
2021/07/04 10:05:13;;;;;;;7.00;6.30;;;22.00;99.90;;;;;;5108086;28;20040;-69
2021/07/04 10:07:39;;;;;;;7.88;7.13;;;22.20;99.90;;;;;;5123251;27;20047;-69
2021/07/04 10:10:05;;;;;;;7.90;7.20;;;22.00;99.90;;;;;;5118317;27;20040;-69
2021/07/04 10:12:31;;;;;;;7.43;6.72;;;22.00;99.90;;;;;;5111737;27;20047;-69
2021/07/04 10:14:57;;;;;;;7.22;6.53;;;22.00;99.90;;;;;;5122796;27;20553;-69
2021/07/04 10:17:28;;;;;;;8.43;7.63;;;22.10;99.90;;;;;;5110236;27;20058;-69
2021/07/04 10:19:55;;;;;;;7.55;6.85;;;22.20;99.90;;;;;;5120216;27;20044;-69
2021/07/04 10:22:23;;;;;;;7.35;6.65;;;22.20;99.90;;;;;;5107981;27;20079;-69
2021/07/04 10:24:50;;;;;;;7.05;6.35;;;22.10;99.90;;;;;;5121701;28;20126;-68
2021/07/04 10:27:17;;;;;;;7.13;6.43;;;22.00;99.90;;;;;;5108420;27;20055;-69
2021/07/04 10:29:43;;;;;;;7.13;6.43;;;22.00;99.90;;;;;;5120567;28;20146;-69
2021/07/04 10:32:13;;;;;;;6.88;6.28;;;22.00;99.90;;;;;;5090383;27;20055;-68
2021/07/04 10:34:48;;;;;;;7.07;5.93;;;22.10;99.90;;;;;;5109026;28;20044;-69
2021/07/04 10:37:28;;;;;;;5.72;5.22;;;22.30;99.90;;;;;;5110141;28;20051;-68
2021/07/04 10:40:12;;;;;;;6.90;6.20;;;22.40;99.90;;;;;;5119390;27;20044;-68
2021/07/04 10:42:39;;;;;;;7.70;6.60;;;22.50;99.90;;;;;;5111931;27;20052;-69
2021/07/04 10:45:29;;;;;;;7.40;6.22;;;22.40;99.90;;;;;;5118881;28;20073;-69
2021/07/04 10:48:18;;;;;;;6.43;5.82;;;22.40;99.90;;;;;;5125820;27;20690;-68
2021/07/04 10:51:07;;;;;;;7.25;6.55;;;22.50;99.90;;;;;;5119848;28;20054;-68
2021/07/04 10:53:47;;;;;;;7.53;6.63;;;22.40;99.90;;;;;;5112255;28;20052;-69
2021/07/04 10:56:31;;;;;;;;;;;22.40;99.90;;;;;;5107516;28;20036;-69
2021/07/04 10:59:04;;;;;;;7.43;6.72;;;22.40;99.90;;;;;;5105381;28;19927;-68
2021/07/04 11:01:53;;;;;;;8.43;7.50;;;22.50;99.90;;;;;;5104081;27;20091;-69
2021/07/04 11:04:31;;;;;;;7.25;6.55;;;22.60;99.90;;;;;;5128148;27;20071;-69
2021/07/04 11:06:58;;;;;;;7.50;6.80;;;22.80;99.90;;;;;;5109183;28;20111;-68
2021/07/04 11:09:24;;;;;;;6.88;6.18;;;23.00;99.90;;;;;;5105834;28;20044;-69
2021/07/04 11:11:50;;;;;;;8.68;7.72;;;23.20;99.90;;;;;;5109047;27;20147;-69
2021/07/04 11:14:16;;;;;;;9.40;8.50;;;23.30;99.90;;;;;;5114783;27;20071;-69
2021/07/04 11:17:02;;;;;;;8.00;7.20;;;23.40;99.90;;;;;;5109611;27;20108;-69
2021/07/04 11:19:28;;;;;;;10.27;9.27;;;23.50;99.90;;;;;;5130401;27;20043;-69
2021/07/04 11:21:57;;;;;;;9.73;8.73;;;23.50;99.90;;;;;;5107963;27;20055;-69
2021/07/04 11:24:28;;;;;;;8.60;7.75;;;23.60;99.90;;;;;;5120319;27;20103;-69
2021/07/04 11:27:15;;;;;;;9.48;8.27;;;23.70;99.90;;;;;;5114192;27;20053;-70
2021/07/04 11:30:21;;;;;;;9.43;8.50;;;23.80;99.90;;;;;;5128728;27;20067;-70
2021/07/04 11:32:47;;;;;;;11.48;8.95;;;23.80;99.90;;;;;;5087316;27;20085;-70
2021/07/04 11:35:13;;;;;;;10.68;9.57;;;23.80;99.90;;;;;;5134211;27;20499;-69
2021/07/04 11:37:40;;;;;;;11.45;10.07;;;24.10;99.90;;;;;;5121679;27;20051;-70
2021/07/04 11:40:07;;;;;;;21.70;10.85;;;24.40;99.90;;;;;;5125718;27;20275;-70
2021/07/04 11:42:33;;;;;;;11.05;10.05;;;24.30;99.90;;;;;;5119500;27;20047;-69
2021/07/04 11:44:59;;;;;;;11.85;10.63;;;24.30;99.90;;;;;;5127177;27;20466;-69
2021/07/04 11:47:24;;;;;;;11.25;10.05;;;24.40;99.90;;;;;;5117984;27;20054;-69
2021/07/04 11:49:50;;;;;;;10.40;9.40;;;24.80;99.90;;;;;;5117535;28;20047;-69
2021/07/04 11:52:20;;;;;;;9.82;8.88;;;24.80;99.90;;;;;;5113185;27;20070;-69
2021/07/04 11:54:47;;;;;;;10.77;9.68;;;24.80;99.90;;;;;;5107264;28;20040;-69
2021/07/04 11:57:30;;;;;;;10.52;9.43;;;25.00;99.90;;;;;;5114800;27;20054;-70
2021/07/04 12:00:02;;;;;;;10.90;9.80;;;24.80;99.90;;;;;;5117158;28;20140;-69
2021/07/04 12:02:28;;;;;;;11.23;10.18;;;24.60;99.90;;;;;;5114126;27;20047;-70
2021/07/04 12:04:54;;;;;;;11.95;10.75;;;24.30;99.90;;;;;;5107581;28;20052;-69
2021/07/04 12:07:24;;;;;;;11.70;10.50;;;24.30;99.90;;;;;;5126204;27;20066;-69
2021/07/04 12:09:57;;;;;;;12.52;11.30;;;24.20;99.90;;;;;;5114207;27;20048;-69
2021/07/04 12:12:29;;;;;;;13.20;11.90;;;24.40;99.90;;;;;;5103170;27;20051;-69
2021/07/04 12:15:03;;;;;;;13.23;11.93;;;24.50;99.90;;;;;;5110249;27;20039;-69
2021/07/04 12:17:45;;;;;;;12.25;11.05;;;24.50;99.90;;;;;;5116041;27;20051;-69
2021/07/04 12:20:17;;;;;;;11.90;10.75;;;24.40;99.90;;;;;;5108145;27;20036;-69
2021/07/04 12:22:48;;;;;;;14.32;12.85;;;24.20;99.90;;;;;;5100584;28;20051;-69
2021/07/04 12:25:20;;;;;;;13.98;12.38;;;24.30;99.90;;;;;;5120139;28;20050;-69
2021/07/04 12:27:52;;;;;;;13.48;12.13;;;24.30;99.90;;;;;;5119598;28;20050;-69
2021/07/04 12:30:30;;;;;;;13.93;12.27;;;24.40;99.90;;;;;;5110466;27;20052;-69
2021/07/04 12:33:01;;;;;;;12.63;11.40;;;24.50;99.90;;;;;;5087241;28;20071;-69
2021/07/04 12:35:37;;;;;;;13.50;12.18;;;24.50;99.90;;;;;;5124749;28;20069;-69
2021/07/04 12:38:12;;;;;;;13.52;12.13;;;24.40;99.90;;;;;;5119460;28;20135;-69
2021/07/04 12:40:50;;;;;;;12.77;11.55;;;24.40;99.90;;;;;;5120585;28;20077;-69
2021/07/04 12:43:19;;;;;;;14.80;13.38;;;24.40;99.90;;;;;;5093275;28;20634;-69